createdAt,value
2023-06-08T00:04:42.149Z,17.81
2023-06-08T00:09:45.743Z,17.75
2023-06-08T00:14:47.768Z,17.72
2023-06-08T00:19:49.405Z,17.68
2023-06-08T00:24:51.142Z,17.58
2023-06-08T00:29:53.393Z,17.54
2023-06-08T00:34:55.492Z,17.52
2023-06-08T00:39:58.865Z,17.53
2023-06-08T00:45:00.476Z,17.49
2023-06-08T00:50:04.003Z,17.46
2023-06-08T00:55:07.348Z,17.51
2023-06-08T01:00:12.566Z,17.50
2023-06-08T01:05:17.382Z,17.47
2023-06-08T01:10:30.535Z,17.48
2023-06-08T01:15:43.705Z,17.49
2023-06-08T01:21:08.862Z,17.50
2023-06-08T01:26:11.412Z,17.48
2023-06-08T01:31:13.240Z,17.46
2023-06-08T01:36:23.029Z,17.42
2023-06-08T01:41:29.061Z,17.41
2023-06-08T01:46:32.168Z,17.35
2023-06-08T01:51:34.756Z,17.28
2023-06-08T01:56:37.282Z,17.24
2023-06-08T02:01:39.171Z,17.20
2023-06-08T02:06:40.944Z,17.18
2023-06-08T02:11:42.823Z,17.16
2023-06-08T02:16:46.806Z,17.07
2023-06-08T02:21:48.644Z,17.00
2023-06-08T02:26:56.046Z,16.94
2023-06-08T02:31:57.806Z,16.87
2023-06-08T02:36:59.559Z,16.79
2023-06-08T02:42:01.337Z,16.79
2023-06-08T02:47:03.455Z,16.79
2023-06-08T02:52:05.664Z,16.71
2023-06-08T02:57:07.870Z,16.70
2023-06-08T03:02:18.664Z,16.63
2023-06-08T03:07:20.816Z,16.62
2023-06-08T03:12:31.244Z,16.60
2023-06-08T03:17:34.627Z,16.58
2023-06-08T03:22:37.606Z,16.59
2023-06-08T03:27:43.790Z,16.55
2023-06-08T03:32:53.118Z,16.54
2023-06-08T03:38:02.450Z,16.57
2023-06-08T03:43:05.513Z,16.64
2023-06-08T03:48:07.298Z,16.73
2023-06-08T03:53:12.582Z,16.95
2023-06-08T03:58:15.072Z,16.97
2023-06-08T04:03:18.811Z,16.96
2023-06-08T04:08:22.985Z,17.00
2023-06-08T04:13:26.476Z,17.05
2023-06-08T04:18:28.117Z,17.16
2023-06-08T04:23:30.354Z,17.19
2023-06-08T04:28:33.418Z,17.20
2023-06-08T04:33:35.714Z,17.24
2023-06-08T04:38:42.332Z,17.30
2023-06-08T04:43:45.512Z,17.38
2023-06-08T04:48:49.771Z,17.44
2023-06-08T04:53:52.269Z,17.49
2023-06-08T04:58:53.911Z,17.58
2023-06-08T05:03:55.587Z,17.64
2023-06-08T05:08:57.559Z,17.71
2023-06-08T05:13:59.281Z,17.73
2023-06-08T05:19:00.929Z,17.80
2023-06-08T05:24:02.643Z,17.84
2023-06-08T05:29:04.398Z,17.88
2023-06-08T05:34:06.729Z,17.94
2023-06-08T05:39:08.770Z,18.00
2023-06-08T05:44:10.448Z,18.08
2023-06-08T05:49:12.343Z,18.18
2023-06-08T05:54:14.152Z,18.29
2023-06-08T05:59:15.837Z,18.39
2023-06-08T06:04:31.133Z,18.51
2023-06-08T06:09:38.375Z,18.63
2023-06-08T06:14:41.710Z,18.73
2023-06-08T06:19:43.649Z,18.76
2023-06-08T06:24:45.823Z,18.90
2023-06-08T06:29:47.675Z,19.02
2023-06-08T06:34:49.528Z,19.16
2023-06-08T06:39:51.232Z,19.18
2023-06-08T06:44:52.843Z,19.32
2023-06-08T06:49:54.642Z,19.41
2023-06-08T06:54:56.798Z,19.54
2023-06-08T06:59:59.511Z,19.60
2023-06-08T07:05:05.616Z,19.49
2023-06-08T07:10:07.770Z,19.52
2023-06-08T07:15:10.166Z,19.37
2023-06-08T07:20:11.907Z,19.53
2023-06-08T07:25:48.129Z,19.61
2023-06-08T07:30:37.067Z,19.63
2023-06-08T07:35:40.110Z,19.65
2023-06-08T07:40:41.717Z,19.55
2023-06-08T07:45:43.660Z,19.83
2023-06-08T07:50:45.376Z,20.09
2023-06-08T07:55:47.248Z,19.99
2023-06-08T08:00:49.127Z,19.80
2023-06-08T08:05:51.164Z,20.07
2023-06-08T08:10:52.887Z,19.97
2023-06-08T08:15:54.574Z,20.46
2023-06-08T08:20:56.227Z,20.81
2023-06-08T08:25:58.122Z,21.13
2023-06-08T08:31:00.352Z,21.65
2023-06-08T08:36:03.768Z,22.10
2023-06-08T08:41:07.555Z,22.76
2023-06-08T08:46:12.577Z,23.07
2023-06-08T08:51:20.547Z,23.38
2023-06-08T08:56:32.096Z,23.64
2023-06-08T09:01:34.504Z,23.18
2023-06-08T09:06:36.181Z,23.71
2023-06-08T09:11:56.426Z,23.31
2023-06-08T09:17:02.802Z,23.67
2023-06-08T09:22:05.444Z,23.93
2023-06-08T09:27:07.309Z,23.98
2023-06-08T09:32:13.784Z,23.99
2023-06-08T09:37:15.598Z,24.28
2023-06-08T09:42:17.395Z,23.95
2023-06-08T09:47:26.954Z,24.74
2023-06-08T09:52:33.443Z,25.43
2023-06-08T09:57:37.615Z,25.53
2023-06-08T10:02:46.361Z,24.86
2023-06-08T10:07:52.480Z,25.76
2023-06-08T10:12:57.180Z,25.55
2023-06-08T10:18:00.657Z,24.81
2023-06-08T10:23:03.970Z,25.98
2023-06-08T10:28:10.172Z,26.12
2023-06-08T10:33:17.397Z,25.74
2023-06-08T10:38:19.121Z,26.01
2023-06-08T10:43:49.732Z,25.50
2023-06-08T10:49:02.214Z,25.09
2023-06-08T10:54:04.232Z,25.59
2023-06-08T10:59:06.011Z,25.81
2023-06-08T11:04:08.731Z,26.07
2023-06-08T11:09:13.949Z,26.77
2023-06-08T11:14:20.136Z,27.13
2023-06-08T11:19:23.629Z,26.25
2023-06-08T11:24:28.950Z,26.45
2023-06-08T11:29:30.727Z,26.76
2023-06-08T11:34:33.329Z,26.39
2023-06-08T11:39:42.389Z,26.34
2023-06-08T11:44:43.909Z,26.15
2023-06-08T11:49:55.363Z,26.19
2023-06-08T11:55:00.489Z,26.31
2023-06-08T12:00:10.406Z,26.16
2023-06-08T12:05:20.915Z,26.50
2023-06-08T12:10:31.726Z,25.51
2023-06-08T12:15:41.014Z,25.54
2023-06-08T12:20:44.393Z,26.00
2023-06-08T12:25:46.058Z,26.40
2023-06-08T12:30:48.130Z,26.91
2023-06-08T12:35:51.245Z,27.26
2023-06-08T12:40:55.044Z,27.57
2023-06-08T12:45:56.720Z,27.36
2023-06-08T12:50:58.862Z,27.54
2023-06-08T12:56:00.763Z,27.60
2023-06-08T13:01:02.528Z,27.55
2023-06-08T13:06:04.613Z,27.38
2023-06-08T13:11:06.416Z,27.18
2023-06-08T13:16:08.626Z,26.52
2023-06-08T13:21:10.325Z,26.05
2023-06-08T13:26:12.708Z,25.25
2023-06-08T13:31:14.831Z,24.22
2023-06-08T13:36:16.601Z,22.07
2023-06-08T13:41:19.246Z,21.46
2023-06-08T13:46:21.204Z,20.99
2023-06-08T13:51:22.940Z,19.93
2023-06-08T13:56:24.594Z,19.72
2023-06-08T14:01:27.203Z,20.07
2023-06-08T14:06:28.838Z,19.96
2023-06-08T14:11:30.584Z,19.66
2023-06-08T14:16:32.638Z,19.38
2023-06-08T14:21:34.786Z,19.80
2023-06-08T14:26:36.537Z,20.35
2023-06-08T14:31:38.462Z,20.60
2023-06-08T14:36:40.121Z,20.70
2023-06-08T14:41:41.830Z,20.85
2023-06-08T14:46:43.526Z,20.77
2023-06-08T14:51:45.435Z,20.73
2023-06-08T14:56:47.489Z,20.73
2023-06-08T15:01:49.155Z,20.78
2023-06-08T15:06:51.007Z,20.84
2023-06-08T15:11:53.232Z,20.86
2023-06-08T15:16:55.145Z,20.87
2023-06-08T15:21:56.822Z,20.64
2023-06-08T15:26:58.576Z,20.71
2023-06-08T15:32:00.859Z,20.82
2023-06-08T15:37:02.683Z,20.78
2023-06-08T15:42:04.917Z,20.56
2023-06-08T15:47:06.902Z,20.07
2023-06-08T15:52:08.843Z,20.12
2023-06-08T15:57:12.376Z,20.21
2023-06-08T16:02:14.253Z,20.13
2023-06-08T16:07:15.959Z,20.20
2023-06-08T16:12:17.643Z,20.26
2023-06-08T16:17:19.363Z,20.00
2023-06-08T16:22:21.088Z,20.12
2023-06-08T16:27:22.895Z,20.17
2023-06-08T16:32:24.668Z,20.13
2023-06-08T16:37:26.405Z,20.10
2023-06-08T16:42:28.154Z,20.12
2023-06-08T16:47:29.809Z,20.15
2023-06-08T16:52:33.354Z,20.15
2023-06-08T16:57:35.304Z,20.11
2023-06-08T17:02:37.595Z,20.11
2023-06-08T17:07:39.994Z,20.17
2023-06-08T17:12:41.644Z,20.16
2023-06-08T17:17:43.410Z,20.14
2023-06-08T17:22:45.126Z,20.23
2023-06-08T17:27:46.979Z,20.22
2023-06-08T17:32:48.757Z,20.25
2023-06-08T17:37:50.737Z,20.26
2023-06-08T17:42:52.402Z,20.19
2023-06-08T17:47:57.644Z,20.20
2023-06-08T17:53:08.183Z,20.15
2023-06-08T17:58:10.194Z,20.20
2023-06-08T18:03:12.025Z,20.23
2023-06-08T18:08:13.789Z,20.21
2023-06-08T18:13:16.874Z,20.18
2023-06-08T18:18:18.579Z,20.11
2023-06-08T18:23:21.022Z,20.07
2023-06-08T18:28:22.725Z,20.03
2023-06-08T18:33:24.391Z,19.99
2023-06-08T18:38:26.202Z,19.94
2023-06-08T18:43:28.005Z,19.87
2023-06-08T18:48:29.674Z,19.82
2023-06-08T18:53:31.278Z,19.73
2023-06-08T18:58:32.940Z,19.67
2023-06-08T19:03:36.335Z,19.58
2023-06-08T19:08:38.113Z,19.49
2023-06-08T19:13:42.775Z,19.44
2023-06-08T19:18:45.208Z,19.36
2023-06-08T19:23:47.170Z,19.27
2023-06-08T19:28:49.109Z,19.21
2023-06-08T19:33:50.745Z,19.12
2023-06-08T19:38:54.483Z,19.08
2023-06-08T19:43:56.220Z,19.01
2023-06-08T19:48:58.014Z,18.94
2023-06-08T19:53:59.663Z,18.79
2023-06-08T19:59:01.323Z,18.79
2023-06-08T20:04:04.124Z,18.72
2023-06-08T20:09:07.389Z,18.61
2023-06-08T20:14:09.025Z,18.61
2023-06-08T20:19:11.104Z,18.58
2023-06-08T20:24:12.979Z,18.47
2023-06-08T20:29:16.155Z,18.46
2023-06-08T20:34:17.828Z,18.45
2023-06-08T20:39:22.351Z,18.43
2023-06-08T20:44:24.904Z,18.34
2023-06-08T20:49:26.618Z,18.38
2023-06-08T20:54:28.227Z,18.41
2023-06-08T20:59:30.250Z,18.42
2023-06-08T21:04:31.933Z,18.45
2023-06-08T21:09:33.849Z,18.45
2023-06-08T21:14:35.482Z,18.41
2023-06-08T21:19:37.125Z,18.44
2023-06-08T21:24:38.771Z,18.44
2023-06-08T21:29:40.596Z,18.40
2023-06-08T21:34:42.262Z,18.38
2023-06-08T21:39:44.252Z,18.38
2023-06-08T21:44:45.949Z,18.37
2023-06-08T21:49:47.649Z,18.34
2023-06-08T21:54:49.995Z,18.32
2023-06-08T21:59:51.675Z,18.31
2023-06-08T22:04:53.363Z,18.25
2023-06-08T22:09:55.147Z,18.25
2023-06-08T22:14:57.092Z,18.23
2023-06-08T22:20:07.421Z,18.24
2023-06-08T22:25:11.090Z,18.21
2023-06-08T22:30:13.622Z,18.15
2023-06-08T22:35:15.321Z,18.13
2023-06-08T22:40:16.992Z,18.15
2023-06-08T22:45:19.566Z,18.13
2023-06-08T22:50:23.936Z,18.17
2023-06-08T22:55:30.545Z,18.16
2023-06-08T23:00:40.077Z,18.16
2023-06-08T23:05:41.793Z,18.12
2023-06-08T23:10:44.439Z,18.09
2023-06-08T23:15:47.973Z,18.12
2023-06-08T23:20:53.769Z,18.10
2023-06-08T23:25:55.459Z,18.09
2023-06-08T23:30:57.085Z,18.07
2023-06-08T23:35:59.091Z,18.07
2023-06-08T23:41:02.627Z,18.06
2023-06-08T23:46:04.283Z,18.07
2023-06-08T23:51:06.188Z,18.05
2023-06-08T23:56:07.852Z,18.02
